Terminal Aerodrome Forecast
Issued by NWS Jackson, MS

Home | Current Version | Previous Version | Text Only | Print | Product List | Glossary On
Versions: 1 2 3 4 5 6 7 8 9 10 11 12 13 14 15 16
267
FTUS44 KJAN 231522 AAD
TAFGWO
TAF AMD
KGWO 231522Z 2315/2412 21005KT P6SM BKN010
     FM231630 20007KT P6SM SCT020
     FM231900 20008KT P6SM VCTS SCT050CB
     FM240200 20003KT P6SM SCT250=

USA.gov is the U.S. government's official web portal to all federal, state and local government web resources and services.